Time;durP1;ratioP1;P1;durP2;ratioP2;P2;SDS_P1;SDS_P2;PMS_P1;PMS_P2;Temp;Humidity;BMP_temperature;BMP_pressure;BME280_temperature;BME280_humidity;BME280_pressure;Samples;Min_cycle;Max_cycle;Signal;HPM_P1;HPM_P2
2021/05/10 00:00:05;;;;;;;;;;;;;;;27.24;30.57;101796.22;5057592;28;811;-34
2021/05/10 00:02:30;;;;;;;;;;;;;;;27.17;30.59;101798.72;5056906;28;1901;-37
2021/05/10 00:04:56;;;;;;;;;;;;;;;27.17;30.68;101792.44;5056778;28;832;-38
2021/05/10 00:07:21;;;;;;;;;;;;;;;27.13;30.86;101803.56;5056817;28;951;-35
2021/05/10 00:09:46;;;;;;;;;;;;;;;27.14;30.82;101801.72;5056915;28;816;-34
2021/05/10 00:12:13;;;;;;;;;;;;;;;27.10;30.80;101790.38;5056443;28;811;-37
2021/05/10 00:14:43;;;;;;;;;;;;;;;27.09;30.64;101783.28;5056998;28;775;-37
2021/05/10 00:17:08;;;;;;;;;;;;;;;27.08;30.70;101788.84;5056882;28;815;-38
2021/05/10 00:19:34;;;;;;;;;;;;;;;27.03;31.01;101783.91;5056343;28;876;-41
2021/05/10 00:21:59;;;;;;;;;;;;;;;27.10;30.98;101792.22;5056095;28;1906;-38
2021/05/10 00:24:25;;;;;;;;;;;;;;;27.09;30.66;101787.84;5056433;28;846;-38
2021/05/10 00:26:50;;;;;;;;;;;;;;;27.08;30.94;101788.84;5056077;28;506;-35
2021/05/10 00:29:18;;;;;;;;;;;;;;;27.10;31.13;101789.53;5056760;28;763;-36
2021/05/10 00:31:43;;;;;;;;;;;;;;;27.06;31.06;101790.88;5042745;28;1217;-34
2021/05/10 00:34:08;;;;;;;;;;;;;;;27.03;31.24;101789.31;5036367;28;774;-35
2021/05/10 00:36:34;;;;;;;;;;;;;;;27.01;31.01;101792.16;5049184;28;1018;-38
2021/05/10 00:38:59;;;;;;;;;;;;;;;26.99;31.17;101788.75;5056487;28;878;-34
2021/05/10 00:41:24;;;;;;;;;;;;;;;27.05;31.10;101783.75;5056090;28;1984;-38
2021/05/10 00:43:49;;;;;;;;;;;;;;;27.00;30.99;101779.66;5056589;28;878;-39
2021/05/10 00:46:15;;;;;;;;;;;;;;;26.99;30.94;101777.13;5056326;28;814;-40
2021/05/10 00:48:40;;;;;;;;;;;;;;;26.98;31.14;101775.41;5056326;28;882;-34
2021/05/10 00:51:05;;;;;;;;;;;;;;;26.97;30.89;101777.28;5056309;28;959;-38
2021/05/10 00:53:30;;;;;;;;;;;;;;;26.96;31.21;101780.13;5056117;28;856;-38
2021/05/10 00:55:56;;;;;;;;;;;;;;;26.97;31.04;101774.56;5056111;28;772;-35
2021/05/10 00:58:21;;;;;;;;;;;;;;;26.99;31.24;101775.25;5038829;28;798;-38
2021/05/10 01:00:46;;;;;;;;;;;;;;;26.94;31.27;101774.88;5056281;28;1901;-39
2021/05/10 01:03:12;;;;;;;;;;;;;;;26.92;31.37;101767.94;5056276;28;786;-37
2021/05/10 01:05:37;;;;;;;;;;;;;;;26.94;31.28;101764.09;5032825;28;1006;-39
2021/05/10 01:08:03;;;;;;;;;;;;;;;26.94;30.99;101771.34;5036131;28;796;-33
2021/05/10 01:10:29;;;;;;;;;;;;;;;26.85;31.46;101770.41;5035518;28;879;-33
2021/05/10 01:12:54;;;;;;;;;;;;;;;26.92;31.03;101765.22;5036370;28;797;-34
2021/05/10 01:15:20;;;;;;;;;;;;;;;26.95;31.28;101775.72;5036155;28;744;-38
2021/05/10 01:17:45;;;;;;;;;;;;;;;26.70;31.83;101775.50;5036212;28;752;-38
2021/05/10 01:20:12;;;;;;;;;;;;;;;26.82;31.70;101774.28;5036894;28;1628;-38
2021/05/10 01:22:41;;;;;;;;;;;;;;;26.88;31.98;101765.56;5055676;28;863;-35
2021/05/10 01:25:07;;;;;;;;;;;;;;;26.95;31.76;101764.91;5056419;28;748;-39
2021/05/10 01:27:32;;;;;;;;;;;;;;;26.94;31.57;101769.50;5055890;28;765;-39
2021/05/10 01:29:58;;;;;;;;;;;;;;;26.97;31.74;101761.06;5038257;28;820;-39
2021/05/10 01:32:23;;;;;;;;;;;;;;;27.01;31.59;101754.38;5055999;28;1278;-35
2021/05/10 01:34:48;;;;;;;;;;;;;;;26.98;31.77;101753.78;5059605;28;743;-39
2021/05/10 01:37:13;;;;;;;;;;;;;;;27.01;31.76;101761.56;5074403;28;1006;-36
2021/05/10 01:39:39;;;;;;;;;;;;;;;26.99;31.95;101753.63;5059942;28;759;-39
2021/05/10 01:42:04;;;;;;;;;;;;;;;26.96;32.08;101751.25;5059465;28;1901;-36
2021/05/10 01:44:30;;;;;;;;;;;;;;;26.94;31.98;101750.59;5059888;28;802;-39
2021/05/10 01:46:55;;;;;;;;;;;;;;;26.98;31.90;101751.09;5059852;28;503;-38
2021/05/10 01:49:20;;;;;;;;;;;;;;;26.91;32.10;101750.88;5059314;28;748;-38
2021/05/10 01:51:45;;;;;;;;;;;;;;;26.94;32.15;101749.72;5059626;28;995;-39
2021/05/10 01:54:11;;;;;;;;;;;;;;;27.00;31.76;101749.09;5059600;28;507;-39
2021/05/10 01:56:36;;;;;;;;;;;;;;;27.00;32.03;101744.56;5058902;28;827;-40
2021/05/10 01:59:01;;;;;;;;;;;;;;;26.99;32.00;101747.41;5059643;28;776;-39
2021/05/10 02:01:27;;;;;;;;;;;;;;;26.97;31.91;101750.28;5059494;28;1898;-39
2021/05/10 02:03:52;;;;;;;;;;;;;;;26.97;32.02;101749.41;5058750;28;767;-36
2021/05/10 02:06:17;;;;;;;;;;;;;;;26.90;32.05;101752.75;5058791;28;1006;-33
2021/05/10 02:08:44;;;;;;;;;;;;;;;26.94;32.32;101741.63;5059275;28;747;-32
2021/05/10 02:11:09;;;;;;;;;;;;;;;26.92;32.36;101736.41;5058664;28;827;-39
2021/05/10 02:13:34;;;;;;;;;;;;;;;27.00;32.18;101749.94;5059197;28;859;-39
2021/05/10 02:16:00;;;;;;;;;;;;;;;26.99;31.94;101742.84;5059384;28;742;-39
2021/05/10 02:18:26;;;;;;;;;;;;;;;26.94;32.14;101741.63;5058443;28;530;-39
2021/05/10 02:20:52;;;;;;;;;;;;;;;26.97;31.89;101744.00;5057883;28;1921;-39
2021/05/10 02:23:21;;;;;;;;;;;;;;;26.98;32.16;101741.16;5059121;28;825;-39
2021/05/10 02:25:50;;;;;;;;;;;;;;;26.94;32.22;101747.88;5058619;28;846;-39
2021/05/10 02:28:16;;;;;;;;;;;;;;;26.99;32.19;101752.81;5058944;28;843;-39
2021/05/10 02:30:41;;;;;;;;;;;;;;;27.04;31.96;101747.81;5059134;28;1214;-37
2021/05/10 02:33:07;;;;;;;;;;;;;;;26.95;32.21;101741.47;5058294;28;768;-36
2021/05/10 02:35:32;;;;;;;;;;;;;;;26.93;32.28;101739.91;5054214;28;948;-33
2021/05/10 02:37:58;;;;;;;;;;;;;;;26.95;32.23;101740.63;5039146;28;765;-37
2021/05/10 02:40:23;;;;;;;;;;;;;;;26.97;32.13;101742.16;5038194;28;1971;-31
2021/05/10 02:42:48;;;;;;;;;;;;;;;26.94;32.10;101745.19;5038870;28;764;-34
2021/05/10 02:45:14;;;;;;;;;;;;;;;26.96;32.09;101747.72;5037835;28;847;-34
2021/05/10 02:47:39;;;;;;;;;;;;;;;26.93;32.24;101756.13;5038264;28;744;-35
2021/05/10 02:50:05;;;;;;;;;;;;;;;26.97;32.26;101746.72;5038261;28;1007;-38
2021/05/10 02:52:31;;;;;;;;;;;;;;;26.94;32.16;101756.00;5037990;28;1498;-33
2021/05/10 02:54:56;;;;;;;;;;;;;;;26.90;32.25;101760.84;5038400;28;814;-39
2021/05/10 02:57:21;;;;;;;;;;;;;;;26.92;32.27;101759.84;5038235;28;962;-32
2021/05/10 02:59:47;;;;;;;;;;;;;;;26.91;31.97;101761.69;5038276;28;751;-39
2021/05/10 03:02:12;;;;;;;;;;;;;;;26.89;32.29;101761.84;5038016;28;1906;-39
2021/05/10 03:04:37;;;;;;;;;;;;;;;26.96;32.38;101763.94;5038492;28;775;-35
2021/05/10 03:07:02;;;;;;;;;;;;;;;26.94;32.41;101757.84;5037729;28;960;-32
2021/05/10 03:09:28;;;;;;;;;;;;;;;26.79;32.27;101766.50;5037918;28;874;-36
2021/05/10 03:11:53;;;;;;;;;;;;;;;25.64;24.86;101757.00;5037980;28;819;-40
2021/05/10 03:14:19;;;;;;;;;;;;;;;25.37;28.52;101754.09;5038016;28;748;-41
2021/05/10 03:16:44;;;;;;;;;;;;;;;25.74;30.36;101773.13;5037761;28;765;-41
2021/05/10 03:19:10;;;;;;;;;;;;;;;25.87;31.72;101775.47;5038006;28;798;-38
2021/05/10 03:21:38;;;;;;;;;;;;;;;25.92;32.30;101775.88;5037063;28;1919;-41
2021/05/10 03:24:05;;;;;;;;;;;;;;;25.93;32.21;101766.78;5037660;28;867;-41
2021/05/10 03:26:30;;;;;;;;;;;;;;;25.84;32.55;101767.69;5038017;28;741;-38
2021/05/10 03:28:56;;;;;;;;;;;;;;;25.80;32.63;101772.53;5038026;28;763;-41
2021/05/10 03:31:21;;;;;;;;;;;;;;;25.86;32.61;101771.91;5048188;28;1219;-40
2021/05/10 03:33:46;;;;;;;;;;;;;;;25.84;32.42;101775.78;5057910;28;858;-41
2021/05/10 03:36:12;;;;;;;;;;;;;;;25.83;32.74;101765.97;5046955;28;864;-39
2021/05/10 03:38:37;;;;;;;;;;;;;;;25.79;32.29;101768.16;5051554;28;1447;-41
2021/05/10 03:41:02;;;;;;;;;;;;;;;25.81;32.43;101771.50;5057522;28;1910;-40
2021/05/10 03:43:28;;;;;;;;;;;;;;;25.83;32.36;101765.97;5057401;28;1077;-40
2021/05/10 03:45:53;;;;;;;;;;;;;;;25.80;32.68;101768.00;5057209;28;848;-38
2021/05/10 03:48:18;;;;;;;;;;;;;;;25.90;32.70;101767.09;5057376;28;764;-40
2021/05/10 03:50:44;;;;;;;;;;;;;;;25.83;33.06;101765.97;5050743;28;1014;-39
2021/05/10 03:53:09;;;;;;;;;;;;;;;22.20;28.68;101765.38;5037415;28;810;-38
2021/05/10 03:55:35;;;;;;;;;;;;;;;22.57;28.75;101767.69;5037864;28;1065;-40
2021/05/10 03:58:00;;;;;;;;;;;;;;;22.72;28.42;101764.78;5057175;28;802;-41
2021/05/10 04:00:25;;;;;;;;;;;;;;;21.42;29.70;101758.91;5055697;28;1964;-40
2021/05/10 04:02:51;;;;;;;;;;;;;;;23.27;28.76;101768.25;5056927;28;985;-42
2021/05/10 04:15:53;;;;;;;;;;;;;;;24.97;29.52;101774.00;5056443;28;641;-39
2021/05/10 04:18:20;;;;;;;;;;;;;;;25.06;29.63;101783.91;5056614;28;736;-38
2021/05/10 04:20:46;;;;;;;;;;;;;;;25.22;29.76;101788.72;5049275;28;1914;-39
2021/05/10 04:23:11;;;;;;;;;;;;;;;25.20;30.13;101779.94;5036679;28;794;-40
2021/05/10 04:25:36;;;;;;;;;;;;;;;25.14;30.42;101778.66;5036505;28;815;-40
2021/05/10 04:28:02;;;;;;;;;;;;;;;25.11;30.86;101775.41;5037246;28;787;-39
2021/05/10 04:30:28;;;;;;;;;;;;;;;25.05;31.07;101776.84;5036406;28;799;-40
2021/05/10 04:32:57;;;;;;;;;;;;;;;25.23;30.86;101785.00;5043608;28;1179;-41
2021/05/10 04:35:22;;;;;;;;;;;;;;;25.26;31.21;101778.47;5053310;28;932;-40
2021/05/10 04:37:48;;;;;;;;;;;;;;;25.21;31.51;101778.09;5036425;28;827;-40
2021/05/10 04:40:13;;;;;;;;;;;;;;;25.22;31.68;101777.94;5036534;28;838;-40
2021/05/10 04:42:39;;;;;;;;;;;;;;;25.28;31.85;101771.97;5036656;28;1969;-40
2021/05/10 04:45:04;;;;;;;;;;;;;;;25.27;32.02;101774.81;5036276;28;834;-40
2021/05/10 04:47:38;;;;;;;;;;;;;;;25.25;32.18;101783.03;5036759;28;768;-38
2021/05/10 04:50:04;;;;;;;;;;;;;;;25.33;32.06;101779.59;5035909;28;1000;-40
2021/05/10 04:52:30;;;;;;;;;;;;;;;25.38;32.19;101776.47;5035678;28;839;-40
2021/05/10 04:54:55;;;;;;;;;;;;;;;25.39;32.35;101778.19;5051873;28;1468;-39
2021/05/10 04:57:20;;;;;;;;;;;;;;;25.42;32.28;101772.50;5036833;28;763;-39
2021/05/10 04:59:45;;;;;;;;;;;;;;;25.42;32.38;101777.88;5036234;28;899;-39
2021/05/10 05:02:11;;;;;;;;;;;;;;;25.44;32.38;101779.44;5036067;28;1976;-39
2021/05/10 05:04:36;;;;;;;;;;;;;;;25.47;32.41;101774.75;5051782;28;938;-40
2021/05/10 05:07:02;;;;;;;;;;;;;;;25.54;32.32;101771.31;5035942;28;1007;-37
2021/05/10 05:09:27;;;;;;;;;;;;;;;25.58;32.08;101774.56;5042326;28;785;-37
2021/05/10 05:11:52;;;;;;;;;;;;;;;25.50;32.49;101772.63;5043031;28;819;-40
2021/05/10 05:14:18;;;;;;;;;;;;;;;25.47;32.56;101772.06;5042798;28;825;-40
2021/05/10 05:16:43;;;;;;;;;;;;;;;25.52;32.54;101775.16;5042891;28;779;-40
2021/05/10 05:19:08;;;;;;;;;;;;;;;25.49;32.58;101781.69;5042891;28;800;-40
2021/05/10 05:21:34;;;;;;;;;;;;;;;25.55;32.53;101782.94;5042222;28;1973;-38
2021/05/10 05:24:00;;;;;;;;;;;;;;;25.56;32.54;101779.25;5042553;28;800;-40
2021/05/10 05:26:25;;;;;;;;;;;;;;;25.61;32.42;101778.81;5042808;28;800;-39
2021/05/10 05:28:50;;;;;;;;;;;;;;;25.56;32.84;101776.56;5042679;28;795;-40
2021/05/10 05:31:16;;;;;;;;;;;;;;;25.64;32.71;101790.16;5042340;28;799;-40
2021/05/10 05:33:41;;;;;;;;;;;;;;;25.65;32.66;101785.63;5056597;28;1199;-39
2021/05/10 05:36:06;;;;;;;;;;;;;;;25.68;32.57;101788.88;5053670;28;947;-40
2021/05/10 05:38:35;;;;;;;;;;;;;;;25.76;32.57;101780.06;5042091;28;747;-40
2021/05/10 05:41:00;;;;;;;;;;;;;;;25.74;32.60;101778.53;5057813;28;1902;-41
2021/05/10 05:43:25;;;;;;;;;;;;;;;25.74;32.78;101784.72;5042483;28;747;-40
2021/05/10 05:45:51;;;;;;;;;;;;;;;25.74;32.60;101776.66;5042675;28;811;-40
2021/05/10 05:48:16;;;;;;;;;;;;;;;25.75;32.58;101785.59;5042423;28;808;-40
2021/05/10 05:50:41;;;;;;;;;;;;;;;25.78;32.53;101790.69;5042152;28;949;-38
2021/05/10 05:53:06;;;;;;;;;;;;;;;25.82;32.54;101794.78;5042325;28;802;-40
2021/05/10 05:55:32;;;;;;;;;;;;;;;25.77;32.69;101791.69;5042246;28;855;-41
2021/05/10 05:57:57;;;;;;;;;;;;;;;25.77;32.75;101795.25;5043134;28;759;-43
2021/05/10 06:00:22;;;;;;;;;;;;;;;25.85;32.61;101794.50;5042059;28;1973;-43
2021/05/10 06:02:48;;;;;;;;;;;;;;;25.84;32.84;101789.25;5042455;28;910;-43
2021/05/10 06:05:13;;;;;;;;;;;;;;;25.82;32.78;101797.50;5042172;28;972;-44
2021/05/10 06:07:41;;;;;;;;;;;;;;;25.92;32.46;101794.75;5042175;28;815;-43
2021/05/10 06:10:08;;;;;;;;;;;;;;;25.91;32.72;101799.28;5042200;28;751;-41
2021/05/10 06:12:33;;;;;;;;;;;;;;;25.89;32.82;101795.06;5042674;28;737;-40
2021/05/10 06:14:58;;;;;;;;;;;;;;;25.88;32.71;101796.88;5042382;28;724;-41
2021/05/10 06:17:23;;;;;;;;;;;;;;;25.86;32.62;101793.47;5042235;28;784;-40
2021/05/10 06:19:49;;;;;;;;;;;;;;;25.93;32.78;101799.13;5039277;28;1268;-37
2021/05/10 06:22:15;;;;;;;;;;;;;;;25.92;32.85;101797.44;5038663;28;1906;-39
2021/05/10 06:24:40;;;;;;;;;;;;;;;25.90;32.92;101804.81;5039031;28;827;-41
2021/05/10 06:27:05;;;;;;;;;;;;;;;25.95;32.33;101802.53;5039232;28;806;-41
2021/05/10 06:29:31;;;;;;;;;;;;;;;25.96;32.46;101793.44;5038760;28;836;-41
2021/05/10 06:31:56;;;;;;;;;;;;;;;26.00;32.42;101799.38;5039111;28;759;-41
2021/05/10 06:34:21;;;;;;;;;;;;;;;25.98;32.55;101804.06;5058352;28;1197;-36
2021/05/10 06:36:47;;;;;;;;;;;;;;;25.97;32.52;101794.28;5044012;28;940;-42
2021/05/10 06:39:12;;;;;;;;;;;;;;;26.04;32.16;101790.84;5038676;28;902;-41
2021/05/10 06:41:37;;;;;;;;;;;;;;;26.05;32.55;101797.09;5038941;28;1969;-37
2021/05/10 06:44:03;;;;;;;;;;;;;;;26.06;32.22;101796.06;5038503;28;814;-40
2021/05/10 06:46:28;;;;;;;;;;;;;;;26.14;32.03;101808.84;5038557;28;770;-41
2021/05/10 06:48:53;;;;;;;;;;;;;;;26.12;32.15;101802.72;5038755;28;767;-40
2021/05/10 06:51:19;;;;;;;;;;;;;;;26.13;31.88;101807.97;5038106;28;964;-41
2021/05/10 06:53:44;;;;;;;;;;;;;;;26.09;31.96;101809.25;5038672;28;772;-42
2021/05/10 06:56:09;;;;;;;;;;;;;;;26.09;32.17;101808.44;5038756;28;752;-37
2021/05/10 06:58:35;;;;;;;;;;;;;;;26.12;32.25;101810.81;5038437;28;795;-41
2021/05/10 07:01:00;;;;;;;;;;;;;;;26.17;32.15;101811.22;5038470;28;1969;-42
2021/05/10 07:03:25;;;;;;;;;;;;;;;26.16;31.96;101813.06;5038564;28;820;-41
2021/05/10 07:05:51;;;;;;;;;;;;;;;26.21;32.48;101812.59;5037729;28;960;-41
2021/05/10 07:08:16;;;;;;;;;;;;;;;26.23;31.82;101807.91;5037845;28;871;-39
2021/05/10 07:10:48;;;;;;;;;;;;;;;26.16;31.97;101821.16;5038328;28;772;-37
2021/05/10 07:13:14;;;;;;;;;;;;;;;26.18;32.62;101821.00;5038044;28;793;-42
2021/05/10 07:15:39;;;;;;;;;;;;;;;26.28;31.61;101819.09;5038159;28;775;-40
2021/05/10 07:18:05;;;;;;;;;;;;;;;26.35;31.49;101815.81;5038162;28;725;-40
2021/05/10 07:20:31;;;;;;;;;;;;;;;26.27;31.74;101824.66;5037121;28;1914;-38
2021/05/10 07:22:56;;;;;;;;;;;;;;;26.29;31.53;101833.44;5037963;28;795;-41
2021/05/10 07:25:22;;;;;;;;;;;;;;;26.26;31.90;101831.88;5038133;28;752;-38
2021/05/10 07:27:47;;;;;;;;;;;;;;;26.23;31.41;101829.50;5037873;28;807;-39
2021/05/10 07:30:13;;;;;;;;;;;;;;;26.21;31.44;101836.03;5037246;28;880;-42
2021/05/10 07:32:38;;;;;;;;;;;;;;;25.99;31.54;101828.19;5042919;28;1184;-40
2021/05/10 07:35:03;;;;;;;;;;;;;;;25.91;31.49;101826.25;5057639;28;955;-38
2021/05/10 07:37:28;;;;;;;;;;;;;;;25.92;32.52;101827.94;5037331;28;961;-37
2021/05/10 07:39:54;;;;;;;;;;;;;;;25.88;32.19;101826.53;5037790;28;815;-41
2021/05/10 07:42:19;;;;;;;;;;;;;;;25.96;32.17;101827.66;5037094;28;1894;-41
2021/05/10 07:44:44;;;;;;;;;;;;;;;26.02;31.97;101829.75;5037416;28;799;-41
2021/05/10 07:47:10;;;;;;;;;;;;;;;26.04;32.17;101831.28;5037716;28;912;-41
2021/05/10 07:49:35;;;;;;;;;;;;;;;26.02;31.78;101833.31;5037425;28;780;-41
2021/05/10 07:52:00;;;;;;;;;;;;;;;25.98;31.80;101834.59;5037088;28;964;-36
2021/05/10 07:54:25;;;;;;;;;;;;;;;25.99;31.98;101832.75;5037188;28;841;-41
2021/05/10 07:56:51;;;;;;;;;;;;;;;25.99;31.97;101830.88;5037347;28;779;-39
2021/05/10 07:59:16;;;;;;;;;;;;;;;26.06;32.06;101831.13;5037097;28;763;-41
2021/05/10 08:01:42;;;;;;;;;;;;;;;26.07;32.24;101832.84;5037376;28;1898;-35
2021/05/10 08:04:07;;;;;;;;;;;;;;;26.02;32.20;101830.59;5037276;28;854;-40
2021/05/10 08:06:32;;;;;;;;;;;;;;;26.04;32.08;101839.38;5036604;28;976;-40
2021/05/10 08:08:58;;;;;;;;;;;;;;;26.05;31.99;101829.44;5036750;28;843;-40
2021/05/10 08:11:23;;;;;;;;;;;;;;;26.01;32.29;101831.59;5037429;28;767;-39
2021/05/10 08:13:48;;;;;;;;;;;;;;;25.75;31.19;101837.66;5052308;28;728;-37
2021/05/10 08:16:13;;;;;;;;;;;;;;;25.58;31.07;101836.53;5037336;28;759;-38
2021/05/10 08:18:42;;;;;;;;;;;;;;;25.53;31.26;101834.28;5036723;28;487;-40
2021/05/10 08:21:07;;;;;;;;;;;;;;;25.51;31.30;101833.56;5045293;28;1902;-39
2021/05/10 08:23:32;;;;;;;;;;;;;;;25.46;31.41;101838.53;5057058;28;733;-38
2021/05/10 08:25:57;;;;;;;;;;;;;;;25.40;31.58;101826.53;5056829;28;836;-40
2021/05/10 08:28:23;;;;;;;;;;;;;;;25.26;32.02;101825.13;5056603;28;816;-40
2021/05/10 08:30:48;;;;;;;;;;;;;;;25.29;32.01;101827.50;5057010;28;811;-39
2021/05/10 08:33:14;;;;;;;;;;;;;;;25.33;31.96;101830.78;5056738;28;1112;-39
2021/05/10 08:35:39;;;;;;;;;;;;;;;25.44;31.68;101830.59;5051068;28;975;-39
2021/05/10 08:38:04;;;;;;;;;;;;;;;25.42;31.67;101829.06;5036512;28;842;-40
2021/05/10 08:40:29;;;;;;;;;;;;;;;25.37;31.82;101817.88;5036591;28;1894;-40
2021/05/10 08:42:55;;;;;;;;;;;;;;;25.43;31.87;101830.75;5035657;28;836;-40
2021/05/10 08:45:21;;;;;;;;;;;;;;;25.42;31.88;101823.69;5036539;28;724;-37
2021/05/10 08:47:47;;;;;;;;;;;;;;;25.32;32.09;101823.69;5036745;28;823;-40
2021/05/10 08:50:13;;;;;;;;;;;;;;;25.29;32.08;101826.69;5037661;28;1026;-37
2021/05/10 08:52:38;;;;;;;;;;;;;;;25.18;32.42;101823.16;5056549;28;764;-41
2021/05/10 08:55:04;;;;;;;;;;;;;;;25.37;33.38;101821.44;5056431;28;803;-41
2021/05/10 08:57:29;;;;;;;;;;;;;;;25.75;33.00;101813.41;5056356;28;752;-41
2021/05/10 08:59:54;;;;;;;;;;;;;;;25.89;32.78;101820.13;5056525;28;875;-38
2021/05/10 09:02:28;;;;;;;;;;;;;;;25.93;32.46;101815.31;5056306;28;1898;-41
2021/05/10 09:04:53;;;;;;;;;;;;;;;25.99;32.17;101816.56;5056241;28;811;-41
2021/05/10 09:07:19;;;;;;;;;;;;;;;25.96;31.98;101816.88;5056124;28;960;-42
2021/05/10 09:09:51;;;;;;;;;;;;;;;26.04;31.96;101809.72;5056262;28;761;-43
2021/05/10 09:12:18;;;;;;;;;;;;;;;26.14;31.37;101814.22;5055732;28;795;-39
2021/05/10 09:14:43;;;;;;;;;;;;;;;26.16;31.56;101806.81;5037784;28;923;-41
2021/05/10 09:17:09;;;;;;;;;;;;;;;26.11;31.96;101809.97;5056608;28;776;-41
2021/05/10 09:19:42;;;;;;;;;;;;;;;26.15;31.82;101805.13;5055269;28;865;-41
2021/05/10 09:22:07;;;;;;;;;;;;;;;26.10;30.31;101804.72;5055692;28;1905;-41
2021/05/10 09:24:32;;;;;;;;;;;;;;;25.74;30.23;101800.06;5056146;28;756;-36
2021/05/10 09:26:58;;;;;;;;;;;;;;;25.48;30.58;101795.28;5037558;28;1422;-41
2021/05/10 09:29:26;;;;;;;;;;;;;;;25.35;30.91;101790.22;5037595;28;840;-41
2021/05/10 09:31:52;;;;;;;;;;;;;;;25.24;30.84;101791.25;5056044;28;813;-38
2021/05/10 09:34:17;;;;;;;;;;;;;;;25.23;30.67;101785.00;5056072;28;1069;-39
2021/05/10 09:36:42;;;;;;;;;;;;;;;25.66;29.49;101788.19;5055653;28;935;-40
2021/05/10 09:39:25;;;;;;;;;;;;;;;25.79;29.24;101784.31;5056195;28;835;-39
2021/05/10 09:41:58;;;;;;;;;;;;;;;25.62;33.06;101784.06;5055568;28;1903;-37
2021/05/10 09:44:32;;;;;;;;;;;;;;;25.44;37.46;101787.50;5055940;28;760;-39
2021/05/10 09:47:01;;;;;;;;;;;;;;;25.33;35.71;101784.13;5038036;28;1405;-40
2021/05/10 09:49:41;;;;;;;;;;;;;;;25.26;37.22;101773.09;5055667;28;771;-38
2021/05/10 09:52:13;;;;;;;;;;;;;;;25.24;35.95;101781.31;5055631;28;951;-37
2021/05/10 09:54:38;;;;;;;;;;;;;;;25.31;33.49;101785.13;5039687;28;692;-37
2021/05/10 09:57:04;;;;;;;;;;;;;;;25.30;32.33;101785.28;5040953;28;989;-38
2021/05/10 09:59:29;;;;;;;;;;;;;;;25.28;31.31;101774.66;5059659;28;791;-38
2021/05/10 10:01:55;;;;;;;;;;;;;;;25.30;30.61;101777.22;5059308;28;1957;-38
2021/05/10 10:04:20;;;;;;;;;;;;;;;25.55;30.95;101773.03;5058928;28;802;-38
2021/05/10 10:06:46;;;;;;;;;;;;;;;25.62;31.62;101773.28;5041037;28;1011;-39
2021/05/10 10:09:11;;;;;;;;;;;;;;;25.73;31.91;101771.41;5059362;28;926;-39
2021/05/10 10:11:36;;;;;;;;;;;;;;;25.70;31.99;101766.31;5059134;28;898;-38
2021/05/10 10:14:02;;;;;;;;;;;;;;;25.82;31.61;101764.28;5059653;28;807;-36
2021/05/10 10:16:27;;;;;;;;;;;;;;;25.79;31.69;101754.66;5059098;28;779;-35
2021/05/10 10:18:54;;;;;;;;;;;;;;;25.70;32.05;101760.94;5059260;28;772;-37
2021/05/10 10:21:20;;;;;;;;;;;;;;;25.74;31.96;101749.69;5058753;28;1910;-39
2021/05/10 10:23:55;;;;;;;;;;;;;;;25.78;32.10;101756.50;5059002;28;759;-37
2021/05/10 10:26:20;;;;;;;;;;;;;;;25.80;32.15;101759.91;5058741;28;820;-41
2021/05/10 10:28:46;;;;;;;;;;;;;;;25.83;31.82;101745.28;5058753;28;776;-37
2021/05/10 10:31:15;;;;;;;;;;;;;;;25.92;31.60;101743.53;5059192;28;742;-38
2021/05/10 10:33:47;;;;;;;;;;;;;;;25.99;31.84;101738.38;5045041;28;1203;-37
2021/05/10 10:36:33;;;;;;;;;;;;;;;25.87;32.14;101735.91;5048593;28;991;-36
2021/05/10 10:39:11;;;;;;;;;;;;;;;25.92;31.76;101740.84;5051089;28;1293;-37
2021/05/10 10:41:52;;;;;;;;;;;;;;;25.90;32.01;101745.53;5058442;28;1894;-35
2021/05/10 10:44:37;;;;;;;;;;;;;;;25.77;32.52;101740.47;5058857;28;784;-37
2021/05/10 10:47:02;;;;;;;;;;;;;;;25.46;31.79;101735.34;5058688;28;847;-38
2021/05/10 10:49:29;;;;;;;;;;;;;;;25.34;32.03;101732.81;5058633;28;786;-41
2021/05/10 10:51:54;;;;;;;;;;;;;;;25.30;31.92;101726.03;5058392;28;1003;-41
2021/05/10 10:54:20;;;;;;;;;;;;;;;25.26;32.40;101724.63;5058181;28;1514;-41
2021/05/10 10:56:46;;;;;;;;;;;;;;;25.25;32.06;101734.56;5058366;28;764;-37
2021/05/10 10:59:38;;;;;;;;;;;;;;;25.28;31.71;101730.72;5058407;28;783;-35
2021/05/10 11:02:15;;;;;;;;;;;;;;;25.19;32.11;101725.22;5053633;28;1906;-41
2021/05/10 11:04:41;;;;;;;;;;;;;;;25.26;32.08;101724.63;5057814;28;796;-41
2021/05/10 11:07:06;;;;;;;;;;;;;;;25.25;32.14;101722.94;5057068;28;999;-38
2021/05/10 11:09:50;;;;;;;;;;;;;;;25.21;32.22;101716.97;5040472;28;793;-37
2021/05/10 11:12:34;;;;;;;;;;;;;;;25.20;32.04;101704.53;5058059;28;788;-36
2021/05/10 11:14:59;;;;;;;;;;;;;;;25.24;32.38;101700.53;5058111;28;823;-38
2021/05/10 11:17:43;;;;;;;;;;;;;;;25.28;32.01;101698.41;5057938;28;860;-41
2021/05/10 11:20:09;;;;;;;;;;;;;;;25.24;32.38;101695.16;5055970;28;1264;-38
2021/05/10 11:22:36;;;;;;;;;;;;;;;25.19;32.69;101695.59;5053313;28;1909;-41
2021/05/10 11:25:20;;;;;;;;;;;;;;;25.20;32.48;101693.75;5037791;28;775;-37
2021/05/10 11:27:45;;;;;;;;;;;;;;;25.21;32.67;101689.22;5037529;28;507;-38
2021/05/10 11:30:10;;;;;;;;;;;;;;;25.24;32.83;101684.38;5038107;28;769;-36
2021/05/10 11:32:36;;;;;;;;;;;;;;;25.36;32.28;101674.28;5042429;28;1179;-37
2021/05/10 11:35:20;;;;;;;;;;;;;;;25.86;31.78;101677.56;5039301;28;1134;-35
2021/05/10 11:37:47;;;;;;;;;;;;;;;26.05;30.88;101678.44;5037886;28;898;-40
2021/05/10 11:40:12;;;;;;;;;;;;;;;25.53;31.21;101669.09;5037363;28;794;-39
2021/05/10 11:42:38;;;;;;;;;;;;;;;25.64;31.05;101668.91;5037455;28;1949;-40
2021/05/10 11:45:03;;;;;;;;;;;;;;;25.80;31.36;101668.28;5037750;28;840;-39
2021/05/10 11:47:28;;;;;;;;;;;;;;;25.90;31.64;101662.81;5037424;28;760;-40
2021/05/10 11:49:54;;;;;;;;;;;;;;;25.88;31.79;101662.09;5037311;28;768;-36
2021/05/10 11:52:20;;;;;;;;;;;;;;;25.97;31.55;101654.97;5037221;28;1004;-40
2021/05/10 11:54:54;;;;;;;;;;;;;;;25.91;31.50;101663.63;5036975;28;892;-39
2021/05/10 11:57:20;;;;;;;;;;;;;;;25.88;32.34;101647.78;5037367;28;789;-37
2021/05/10 11:59:47;;;;;;;;;;;;;;;25.90;32.29;101654.72;5037430;28;823;-40
2021/05/10 12:02:14;;;;;;;;;;;;;;;25.89;32.58;101644.94;5036952;28;1898;-40
2021/05/10 12:04:43;;;;;;;;;;;;;;;25.93;32.15;101645.47;5037214;28;768;-40
2021/05/10 12:07:08;;;;;;;;;;;;;;;25.93;32.18;101648.16;5037081;28;941;-40
2021/05/10 12:09:33;;;;;;;;;;;;;;;25.91;32.16;101642.94;5037077;28;756;-40
2021/05/10 12:11:59;;;;;;;;;;;;;;;25.87;32.34;101646.09;5037120;28;748;-40
2021/05/10 12:14:24;;;;;;;;;;;;;;;25.89;31.77;101646.78;5037187;28;844;-40
2021/05/10 12:16:59;;;;;;;;;;;;;;;25.94;32.21;101638.25;5036296;28;744;-40
2021/05/10 12:19:24;;;;;;;;;;;;;;;25.84;32.17;101631.06;5036547;28;811;-37
2021/05/10 12:22:03;;;;;;;;;;;;;;;25.87;32.16;101624.53;5051533;28;2005;-40
2021/05/10 12:24:28;;;;;;;;;;;;;;;25.86;32.17;101626.38;5056354;28;804;-37
2021/05/10 12:26:53;;;;;;;;;;;;;;;25.85;32.35;101637.31;5056957;28;871;-40
2021/05/10 12:29:18;;;;;;;;;;;;;;;25.88;32.18;101628.91;5038969;28;784;-40
2021/05/10 12:31:44;;;;;;;;;;;;;;;25.90;32.23;101626.91;5056304;28;843;-40
2021/05/10 12:34:09;;;;;;;;;;;;;;;25.90;32.36;101624.22;5056775;28;1176;-40
2021/05/10 12:36:34;;;;;;;;;;;;;;;25.91;32.05;101625.91;5071670;28;939;-40
2021/05/10 12:39:10;;;;;;;;;;;;;;;25.89;32.11;101620.66;5071528;28;769;-40
2021/05/10 12:41:35;;;;;;;;;;;;;;;25.91;31.92;101612.44;5056640;28;1914;-40
2021/05/10 12:44:08;;;;;;;;;;;;;;;25.94;32.09;101624.75;5056827;28;752;-34
2021/05/10 12:46:43;;;;;;;;;;;;;;;25.89;32.18;101623.38;5056158;28;579;-40
2021/05/10 12:49:15;;;;;;;;;;;;;;;25.88;32.32;101628.91;5056602;28;822;-40
2021/05/10 12:51:40;;;;;;;;;;;;;;;25.92;32.27;101620.34;5071215;28;1354;-40
2021/05/10 12:54:13;;;;;;;;;;;;;;;25.88;32.23;101621.69;5071455;28;1234;-40
2021/05/10 12:56:42;;;;;;;;;;;;;;;25.94;32.08;101622.06;5056817;28;802;-38
2021/05/10 12:59:07;;;;;;;;;;;;;;;25.87;32.19;101624.53;5071998;28;778;-40
2021/05/10 13:01:32;;;;;;;;;;;;;;;25.89;32.01;101626.06;5056089;28;1930;-39